Time;durP1;ratioP1;P1;durP2;ratioP2;P2;SDS_P1;SDS_P2;PMS_P1;PMS_P2;Temp;Humidity;BMP_temperature;BMP_pressure;BME280_temperature;BME280_humidity;BME280_pressure;Samples;Min_cycle;Max_cycle;Signal;HPM_P1;HPM_P2
2023/08/27 00:01:09;;;;;;;0.40;0.20;;;;;;;16.71;100.00;99701.31;5066199;28;20482;-50
2023/08/27 00:03:36;;;;;;;0.50;0.20;;;;;;;16.63;100.00;99697.38;5068420;28;20441;-49
2023/08/27 00:06:03;;;;;;;0.40;0.20;;;;;;;16.67;100.00;99699.78;5064027;28;20450;-50
2023/08/27 00:08:29;;;;;;;0.50;0.20;;;;;;;16.71;100.00;99705.81;5061312;28;20552;-51
2023/08/27 00:10:57;;;;;;;0.40;0.20;;;;;;;16.71;100.00;99711.19;5065388;28;21010;-50
2023/08/27 00:13:24;;;;;;;0.47;0.20;;;;;;;16.70;100.00;99710.31;5068196;28;21029;-50
2023/08/27 00:15:50;;;;;;;0.40;0.20;;;;;;;16.63;100.00;99694.69;5064431;28;20446;-50
2023/08/27 00:18:17;;;;;;;0.40;0.20;;;;;;;16.51;100.00;99690.97;5061162;28;20474;-50
2023/08/27 00:20:48;;;;;;;0.40;0.20;;;;;;;16.61;100.00;99702.00;5064588;28;20493;-50
2023/08/27 00:23:16;;;;;;;0.40;0.20;;;;;;;16.60;100.00;99690.38;5064375;28;20454;-50
2023/08/27 00:25:43;;;;;;;0.40;0.20;;;;;;;16.47;100.00;99700.16;5065629;28;20457;-50
2023/08/27 00:28:13;;;;;;;0.40;0.20;;;;;;;16.61;100.00;99702.00;5061017;28;20470;-50
2023/08/27 00:30:40;;;;;;;0.40;0.20;;;;;;;16.74;100.00;99703.84;5062674;28;20518;-51
2023/08/27 00:33:07;;;;;;;0.40;0.20;;;;;;;16.61;100.00;99693.94;5059398;28;20870;-51
2023/08/27 00:35:34;;;;;;;0.40;0.20;;;;;;;16.54;100.00;99699.66;5058546;28;20443;-50
2023/08/27 00:38:00;;;;;;;0.40;0.20;;;;;;;16.63;100.00;99703.59;5067631;28;20466;-50
2023/08/27 00:40:28;;;;;;;0.40;0.20;;;;;;;16.62;100.00;99699.19;5066841;28;20489;-50
2023/08/27 00:42:56;;;;;;;0.40;0.20;;;;;;;16.58;100.00;99711.06;5060606;28;20454;-50
2023/08/27 00:45:24;;;;;;;0.40;0.20;;;;;;;16.67;100.00;99713.22;5056681;28;20443;-50
2023/08/27 00:47:51;;;;;;;0.50;0.20;;;;;;;16.73;100.00;99737.00;5067429;28;20505;-51
2023/08/27 00:50:19;;;;;;;0.40;0.20;;;;;;;16.78;100.00;99745.63;5066832;28;20466;-50
2023/08/27 00:52:46;;;;;;;0.40;0.20;;;;;;;16.61;100.00;99735.06;5059481;28;20507;-50
2023/08/27 00:55:12;;;;;;;0.40;0.20;;;;;;;16.62;100.00;99726.03;5061042;28;20486;-52
2023/08/27 00:57:40;;;;;;;0.40;0.20;;;;;;;16.60;100.00;99725.28;5067638;28;20470;-50
2023/08/27 01:00:09;;;;;;;0.40;0.20;;;;;;;16.43;100.00;99730.81;5067231;28;20474;-50
2023/08/27 01:02:42;;;;;;;0.40;0.20;;;;;;;16.10;100.00;99714.97;5067141;28;21051;-50
2023/08/27 01:05:09;;;;;;;0.40;0.20;;;;;;;16.28;100.00;99721.88;5067209;28;20537;-50
2023/08/27 01:07:46;;;;;;;0.40;0.20;;;;;;;16.23;100.00;99719.50;5062190;28;20589;-50
2023/08/27 01:10:44;;;;;;;0.50;0.20;;;;;;;16.37;100.00;99720.47;5060086;28;20449;-50
2023/08/27 01:13:16;;;;;;;0.50;0.20;;;;;;;16.45;100.00;99721.72;5060440;28;20451;-50
2023/08/27 01:15:45;;;;;;;1.70;1.70;;;;;;;16.44;100.00;99711.91;5065436;28;20522;-52
2023/08/27 01:18:14;;;;;;;0.40;0.20;;;;;;;16.23;100.00;99683.75;5066810;28;20492;-51
2023/08/27 01:20:41;;;;;;;0.50;0.20;;;;;;;16.27;100.00;99691.50;5062727;28;20997;-51
2023/08/27 01:23:07;;;;;;;0.40;0.20;;;;;;;16.42;100.00;99694.19;5052731;28;20918;-50
2023/08/27 01:25:43;;;;;;;0.50;0.20;;;;;;;16.22;100.00;99682.91;5064161;28;20932;-50
2023/08/27 01:28:17;;;;;;;0.40;0.20;;;;;;;16.04;100.00;99672.44;5066865;28;20466;-49
2023/08/27 01:30:51;;;;;;;0.47;0.20;;;;;;;16.15;100.00;99684.22;5065324;28;20857;-50
2023/08/27 01:33:25;;;;;;;0.40;0.20;;;;;;;16.19;100.00;99677.72;5059961;28;21083;-51
2023/08/27 01:35:53;;;;;;;0.40;0.20;;;;;;;16.23;100.00;99692.66;5055561;28;20496;-50
2023/08/27 01:38:20;;;;;;;0.40;0.20;;;;;;;16.28;100.00;99677.16;5065722;28;20555;-50
2023/08/27 01:40:46;;;;;;;0.40;0.27;;;;;;;16.30;100.00;99675.22;5066854;28;20456;-50
2023/08/27 01:43:13;;;;;;;0.50;0.20;;;;;;;16.30;100.00;99674.38;5060847;28;20468;-52
2023/08/27 01:45:39;;;;;;;0.40;0.20;;;;;;;16.41;100.00;99660.28;5054148;28;20447;-50
2023/08/27 01:48:05;;;;;;;0.47;0.20;;;;;;;16.32;100.00;99661.75;5064977;28;20845;-50
2023/08/27 01:50:32;;;;;;;0.50;0.20;;;;;;;16.92;100.00;99666.03;5066642;28;20464;-49
2023/08/27 01:52:59;;;;;;;0.40;0.20;;;;;;;16.77;100.00;99655.31;5059896;28;20505;-50
2023/08/27 01:55:26;;;;;;;0.40;0.30;;;;;;;16.52;100.00;99657.78;5057471;28;20566;-50
2023/08/27 01:57:52;;;;;;;0.40;0.20;;;;;;;16.43;100.00;99655.69;5064647;28;20466;-50
2023/08/27 02:00:20;;;;;;;0.40;0.20;;;;;;;16.33;100.00;99657.25;5066090;28;20528;-50
2023/08/27 02:02:47;;;;;;;0.40;0.20;;;;;;;16.20;100.00;99662.50;5061299;28;20456;-49
2023/08/27 02:05:14;;;;;;;0.40;0.20;;;;;;;16.17;100.00;99670.72;5059385;28;20450;-49
2023/08/27 02:07:41;;;;;;;0.40;0.20;;;;;;;16.38;100.00;99673.91;5063694;28;20557;-50
2023/08/27 02:10:08;;;;;;;0.40;0.20;;;;;;;16.28;100.00;99663.72;5066064;28;20454;-50
2023/08/27 02:12:35;;;;;;;0.40;0.20;;;;;;;16.04;100.00;99657.22;5062230;28;20451;-49
2023/08/27 02:15:07;;;;;;;0.40;0.20;;;;;;;16.07;100.00;99645.44;5058898;28;20576;-50
2023/08/27 02:17:34;;;;;;;0.40;0.20;;;;;;;16.10;100.00;99637.19;5061784;28;20831;-49
2023/08/27 02:20:05;;;;;;;0.40;0.20;;;;;;;16.26;100.00;99644.19;5066021;28;20450;-50
2023/08/27 02:22:31;;;;;;;0.40;0.20;;;;;;;16.25;100.00;99644.28;5063841;28;20856;-50
2023/08/27 02:24:58;;;;;;;0.40;0.20;;;;;;;16.26;100.00;99646.88;5059465;28;20446;-50
2023/08/27 02:27:24;;;;;;;0.40;0.20;;;;;;;16.30;100.00;99636.81;5061020;28;20524;-50
2023/08/27 02:29:50;;;;;;;0.40;0.20;;;;;;;16.36;100.00;99636.44;5065505;28;20447;-50
2023/08/27 02:32:17;;;;;;;0.40;0.20;;;;;;;16.37;100.00;99659.63;5063835;28;20449;-50
2023/08/27 02:34:43;;;;;;;0.40;0.20;;;;;;;16.36;100.00;99663.28;5053544;28;20869;-51
2023/08/27 02:37:10;;;;;;;0.40;0.20;;;;;;;16.34;100.00;99664.31;5064044;28;20880;-50
2023/08/27 02:39:36;;;;;;;0.40;0.20;;;;;;;16.24;100.00;99672.94;5058649;28;20461;-50
2023/08/27 02:42:03;;;;;;;0.40;0.20;;;;;;;16.32;100.00;99669.78;5060252;28;20498;-50
2023/08/27 02:44:29;;;;;;;0.47;0.20;;;;;;;16.31;100.00;99657.34;5060720;28;20438;-49
2023/08/27 02:46:56;;;;;;;0.40;0.20;;;;;;;16.22;100.00;99668.63;5063686;28;21105;-49
2023/08/27 02:49:22;;;;;;;0.40;0.20;;;;;;;16.25;100.00;99661.25;5058414;28;20489;-50
2023/08/27 02:51:48;;;;;;;0.40;0.20;;;;;;;16.07;100.00;99653.50;5060337;28;20447;-49
2023/08/27 02:54:15;;;;;;;0.40;0.20;;;;;;;15.99;100.00;99670.03;5065463;28;20514;-50
2023/08/27 02:56:41;;;;;;;0.40;0.20;;;;;;;16.03;100.00;99668.88;5063975;28;20549;-50
2023/08/27 02:59:08;;;;;;;0.40;0.20;;;;;;;16.02;100.00;99666.28;5058201;28;21033;-50
2023/08/27 03:01:34;;;;;;;0.40;0.20;;;;;;;16.15;100.00;99662.75;5059925;28;20824;-49
2023/08/27 03:04:00;;;;;;;0.40;0.20;;;;;;;16.31;100.00;99670.75;5065157;28;20928;-50
2023/08/27 03:06:27;;;;;;;0.40;0.20;;;;;;;16.11;100.00;99674.66;5065434;28;20477;-50
2023/08/27 03:08:53;;;;;;;0.40;0.20;;;;;;;16.21;100.00;99673.13;5062563;28;20446;-50
2023/08/27 03:11:20;;;;;;;0.40;0.20;;;;;;;16.19;100.00;99660.78;5062915;28;20478;-50
2023/08/27 03:13:48;;;;;;;0.40;0.20;;;;;;;16.21;100.00;99665.09;5069211;28;20834;-49
2023/08/27 03:16:15;;;;;;;0.40;0.20;;;;;;;16.23;100.00;99652.44;5068271;28;20445;-50
2023/08/27 03:18:41;;;;;;;0.40;0.20;;;;;;;16.11;100.00;99652.34;5062256;28;20546;-49
2023/08/27 03:21:08;;;;;;;0.40;0.20;;;;;;;16.15;100.00;99652.03;5063700;28;20529;-50
2023/08/27 03:23:35;;;;;;;0.40;0.20;;;;;;;16.19;100.00;99652.75;5069099;28;21014;-50
2023/08/27 03:26:03;;;;;;;0.40;0.20;;;;;;;16.23;100.00;99648.91;5068335;28;20488;-50
2023/08/27 03:28:29;;;;;;;0.40;0.20;;;;;;;16.18;100.00;99651.88;5062368;28;20465;-50
2023/08/27 03:30:56;;;;;;;0.40;0.20;;;;;;;16.22;100.00;99642.66;5062801;28;20533;-49
2023/08/27 03:33:22;;;;;;;0.40;0.20;;;;;;;16.09;100.00;99644.38;5062019;28;20549;-50
2023/08/27 03:35:54;;;;;;;0.40;0.20;;;;;;;16.06;100.00;99639.22;5053268;28;21041;-49
2023/08/27 03:38:21;;;;;;;0.40;0.20;;;;;;;15.84;100.00;99638.78;5049090;28;20557;-50
2023/08/27 03:40:52;;;;;;;0.50;0.20;;;;;;;15.93;100.00;99628.38;5061860;28;20458;-50
2023/08/27 03:43:18;;;;;;;0.40;0.20;;;;;;;15.81;100.00;99633.63;5067963;28;20535;-50
2023/08/27 03:45:45;;;;;;;0.50;0.20;;;;;;;15.89;100.00;99626.81;5057503;28;20443;-51
2023/08/27 03:48:11;;;;;;;0.40;0.20;;;;;;;15.99;100.00;99635.19;5066251;28;20509;-50
2023/08/27 03:50:38;;;;;;;0.40;0.20;;;;;;;15.98;100.00;99641.50;5068616;28;20452;-49
2023/08/27 03:53:05;;;;;;;0.40;0.20;;;;;;;15.83;100.00;99637.06;5064576;28;20536;-50
2023/08/27 03:55:39;;;;;;;0.40;0.20;;;;;;;15.85;100.00;99630.66;5060562;28;20582;-49
2023/08/27 03:58:09;;;;;;;0.40;0.20;;;;;;;15.95;100.00;99620.25;5064714;28;20493;-50
2023/08/27 04:00:36;;;;;;;0.40;0.20;;;;;;;15.92;100.00;99615.94;5068397;28;20446;-50
2023/08/27 04:03:04;;;;;;;0.40;0.20;;;;;;;15.93;100.00;99604.25;5066363;28;20518;-50
2023/08/27 04:05:31;;;;;;;0.40;0.20;;;;;;;15.82;100.00;99605.88;5061334;28;20918;-50
2023/08/27 04:07:58;;;;;;;0.40;0.20;;;;;;;15.92;100.00;99605.22;5063494;28;21023;-49
2023/08/27 04:10:24;;;;;;;0.40;0.20;;;;;;;15.96;100.00;99611.25;5068324;28;20454;-49
2023/08/27 04:12:51;;;;;;;0.40;0.20;;;;;;;16.04;100.00;99600.91;5066358;28;20968;-49
2023/08/27 04:15:17;;;;;;;0.40;0.20;;;;;;;16.06;100.00;99598.16;5061363;28;20572;-50
2023/08/27 04:17:44;;;;;;;0.40;0.20;;;;;;;16.12;100.00;99597.75;5062846;28;20851;-50
2023/08/27 04:20:10;;;;;;;0.40;0.20;;;;;;;15.94;100.00;99589.91;5068064;28;20504;-51
2023/08/27 04:22:37;;;;;;;0.40;0.20;;;;;;;15.96;100.00;99593.34;5066083;28;20449;-49
2023/08/27 04:25:04;;;;;;;0.40;0.20;;;;;;;16.03;100.00;99592.94;5061082;28;20450;-50
2023/08/27 04:27:30;;;;;;;0.40;0.20;;;;;;;15.96;100.00;99601.38;5063090;28;20550;-51
2023/08/27 04:29:57;;;;;;;0.40;0.20;;;;;;;16.02;100.00;99588.53;5068068;28;20489;-50
2023/08/27 04:32:25;;;;;;;0.40;0.20;;;;;;;15.97;100.00;99592.38;5066459;28;20536;-50
2023/08/27 04:34:51;;;;;;;0.40;0.20;;;;;;;15.99;100.00;99592.28;5055151;28;20497;-50
2023/08/27 04:37:18;;;;;;;0.40;0.20;;;;;;;16.07;100.00;99603.41;5066841;28;20502;-51
2023/08/27 04:39:45;;;;;;;0.40;0.20;;;;;;;15.97;100.00;99603.09;5061161;28;20424;-50
2023/08/27 04:42:11;;;;;;;0.40;0.20;;;;;;;15.86;100.00;99600.22;5061797;28;20512;-50
2023/08/27 04:44:38;;;;;;;0.40;0.20;;;;;;;15.86;100.00;99604.72;5061973;28;20445;-50
2023/08/27 04:47:04;;;;;;;0.40;0.20;;;;;;;16.03;100.00;99617.94;5067192;28;20472;-50
2023/08/27 04:49:31;;;;;;;0.40;0.20;;;;;;;15.94;100.00;99605.97;5060143;28;20453;-50
2023/08/27 04:51:57;;;;;;;0.40;0.20;;;;;;;15.85;100.00;99603.00;5060714;28;20970;-51
2023/08/27 04:54:23;;;;;;;0.40;0.20;;;;;;;15.85;100.00;99598.50;5067297;28;20518;-51
2023/08/27 04:56:50;;;;;;;0.40;0.20;;;;;;;15.88;100.00;99600.97;5067315;28;20509;-50
2023/08/27 04:59:16;;;;;;;0.40;0.20;;;;;;;15.90;100.00;99609.81;5061672;28;20495;-50
2023/08/27 05:01:43;;;;;;;0.40;0.20;;;;;;;15.88;100.00;99602.81;5060433;28;20512;-49
2023/08/27 05:04:09;;;;;;;0.40;0.20;;;;;;;15.89;100.00;99610.75;5066396;28;20447;-50
2023/08/27 05:06:36;;;;;;;0.40;0.20;;;;;;;15.95;100.00;99610.38;5067361;28;20835;-50
2023/08/27 05:09:02;;;;;;;0.40;0.20;;;;;;;15.72;100.00;99615.41;5061781;28;20454;-50
2023/08/27 05:11:28;;;;;;;0.50;0.50;;;;;;;15.81;100.00;99620.22;5060303;28;20457;-50
2023/08/27 05:13:55;;;;;;;0.40;0.20;;;;;;;15.96;100.00;99625.50;5066280;28;20529;-50
2023/08/27 05:16:21;;;;;;;0.40;0.20;;;;;;;15.88;100.00;99618.88;5066654;28;21069;-50
2023/08/27 05:18:48;;;;;;;0.40;0.20;;;;;;;15.55;100.00;99617.25;5061535;28;20453;-49
2023/08/27 05:21:14;;;;;;;0.40;0.20;;;;;;;15.61;100.00;99619.59;5060158;28;20457;-51
2023/08/27 05:23:40;;;;;;;0.40;0.20;;;;;;;15.68;100.00;99625.47;5065487;28;20457;-51
2023/08/27 05:26:07;;;;;;;0.40;0.20;;;;;;;15.76;100.00;99624.97;5066908;28;20533;-52
2023/08/27 05:28:34;;;;;;;0.40;0.20;;;;;;;15.60;100.00;99627.72;5061276;28;20448;-51
2023/08/27 05:31:00;;;;;;;0.40;0.20;;;;;;;15.77;100.00;99618.69;5059152;28;20940;-55
2023/08/27 05:33:27;;;;;;;0.40;0.20;;;;;;;15.59;100.00;99597.41;5065250;28;20454;-50
2023/08/27 05:35:54;;;;;;;0.40;0.20;;;;;;;15.83;100.00;99605.78;5054363;28;20482;-51
2023/08/27 05:38:21;;;;;;;0.50;0.20;;;;;;;15.83;100.00;99612.94;5065047;28;20999;-52
2023/08/27 05:40:50;;;;;;;0.40;0.20;;;;;;;15.92;100.00;99605.22;5066473;28;20796;-52
2023/08/27 05:43:16;;;;;;;0.40;0.20;;;;;;;16.01;100.00;99598.41;5061680;28;20465;-54
2023/08/27 05:45:43;;;;;;;0.40;0.20;;;;;;;16.17;100.00;99593.84;5055131;28;20438;-53
2023/08/27 05:48:09;;;;;;;0.40;0.20;;;;;;;16.23;100.00;99593.44;5064488;28;20497;-52
2023/08/27 05:50:36;;;;;;;0.40;0.20;;;;;;;16.19;100.00;99586.56;5066463;28;20977;-52
2023/08/27 05:53:06;;;;;;;0.40;0.20;;;;;;;16.23;100.00;99577.34;5062017;28;20454;-52
2023/08/27 05:55:34;;;;;;;0.40;0.20;;;;;;;16.28;100.00;99585.09;5059463;28;21004;-51
2023/08/27 05:58:00;;;;;;;0.40;0.20;;;;;;;16.35;100.00;99591.81;5063769;28;20550;-49
2023/08/27 06:00:27;;;;;;;0.40;0.20;;;;;;;16.61;100.00;99582.09;5065976;28;20450;-49
2023/08/27 06:02:54;;;;;;;0.40;0.20;;;;;;;16.55;100.00;99587.84;5062339;28;20541;-50
2023/08/27 06:05:20;;;;;;;0.40;0.20;;;;;;;16.56;100.00;99593.09;5059237;28;20849;-50
2023/08/27 06:07:46;;;;;;;0.40;0.20;;;;;;;16.58;100.00;99587.63;5062954;28;20554;-50
2023/08/27 06:10:13;;;;;;;0.40;0.20;;;;;;;16.62;100.00;99578.44;5066156;28;20534;-49
2023/08/27 06:12:39;;;;;;;0.40;0.20;;;;;;;16.70;100.00;99576.13;5062479;28;20532;-49
2023/08/27 06:15:07;;;;;;;0.40;0.20;;;;;;;16.85;100.00;99585.88;5058904;28;20496;-49
2023/08/27 06:17:33;;;;;;;0.40;0.20;;;;;;;16.98;100.00;99585.91;5062320;28;20466;-49
2023/08/27 06:20:00;;;;;;;2.13;2.00;;;;;;;16.94;100.00;99580.88;5065939;28;20451;-50
2023/08/27 06:22:26;;;;;;;0.40;0.20;;;;;;;16.91;100.00;99591.81;5062146;28;20494;-49
2023/08/27 06:24:53;;;;;;;0.40;0.20;;;;;;;17.02;99.94;99597.34;5059111;28;20541;-49
2023/08/27 06:27:19;;;;;;;0.40;0.20;;;;;;;17.01;99.14;99611.72;5061150;28;20553;-51
2023/08/27 06:29:46;;;;;;;0.40;0.20;;;;;;;16.93;99.15;99600.63;5066038;28;20443;-50
2023/08/27 06:32:15;;;;;;;0.40;0.20;;;;;;;16.86;99.35;99602.88;5063416;28;20541;-50
2023/08/27 06:34:41;;;;;;;0.40;0.20;;;;;;;16.99;99.18;99605.56;5054357;28;20474;-49
2023/08/27 06:37:08;;;;;;;0.40;0.20;;;;;;;16.90;99.87;99609.75;5063968;28;20465;-49
2023/08/27 06:39:34;;;;;;;0.40;0.20;;;;;;;16.85;99.18;99598.44;5058770;28;20529;-50
2023/08/27 06:42:01;;;;;;;0.40;0.20;;;;;;;16.61;100.00;99591.97;5060311;28;20451;-49
2023/08/27 06:44:27;;;;;;;0.40;0.20;;;;;;;16.45;100.00;99600.13;5060346;28;20882;-50
2023/08/27 06:46:53;;;;;;;0.40;0.20;;;;;;;16.40;100.00;99584.31;5063831;28;20504;-50
2023/08/27 06:49:20;;;;;;;0.40;0.20;;;;;;;16.39;100.00;99574.53;5058701;28;20491;-50
2023/08/27 06:51:48;;;;;;;0.40;0.20;;;;;;;16.08;100.00;99572.94;5060416;28;20513;-50
2023/08/27 06:54:15;;;;;;;0.40;0.20;;;;;;;15.89;100.00;99588.44;5071330;28;20533;-50
2023/08/27 06:56:41;;;;;;;0.40;0.20;;;;;;;16.26;100.00;99609.31;5059445;28;20998;-49
2023/08/27 06:59:10;;;;;;;0.40;0.20;;;;;;;16.53;100.00;99606.72;5065832;28;20473;-48
2023/08/27 07:01:40;;;;;;;0.40;0.20;;;;;;;16.33;100.00;99606.28;5065046;28;20445;-50
2023/08/27 07:04:07;;;;;;;0.40;0.20;;;;;;;16.41;100.00;99610.19;5058497;28;20538;-51
2023/08/27 07:06:33;;;;;;;0.40;0.20;;;;;;;16.53;100.00;99612.09;5045472;28;20462;-51
2023/08/27 07:09:01;;;;;;;0.40;0.20;;;;;;;16.56;100.00;99613.69;5058916;28;20449;-51
2023/08/27 07:11:27;;;;;;;0.40;0.20;;;;;;;16.71;100.00;99607.38;5058628;28;20533;-51
2023/08/27 07:13:54;;;;;;;0.40;0.20;;;;;;;16.60;100.00;99617.94;5057866;28;20487;-51
2023/08/27 07:16:20;;;;;;;0.40;0.20;;;;;;;16.96;100.00;99619.22;5059920;28;20486;-51
2023/08/27 07:18:47;;;;;;;0.40;0.20;;;;;;;17.09;100.00;99623.66;5064336;28;20450;-51
2023/08/27 07:21:13;;;;;;;0.40;0.20;;;;;;;17.15;100.00;99592.88;5054971;28;20488;-51
2023/08/27 07:23:40;;;;;;;0.40;0.20;;;;;;;17.19;100.00;99597.06;5059262;28;20449;-51
2023/08/27 07:26:06;;;;;;;0.40;0.20;;;;;;;17.28;100.00;99603.66;5058521;28;20449;-51
2023/08/27 07:28:33;;;;;;;0.40;0.20;;;;;;;17.73;100.00;99616.69;5064438;28;20534;-51
2023/08/27 07:30:59;;;;;;;0.40;0.20;;;;;;;18.03;100.00;99627.13;5050717;28;20444;-51
2023/08/27 07:33:26;;;;;;;0.40;0.20;;;;;;;18.05;98.08;99624.34;5050683;28;20446;-51
2023/08/27 07:35:53;;;;;;;0.40;0.20;;;;;;;17.94;97.04;99643.91;5052638;28;20552;-50
2023/08/27 07:38:20;;;;;;;0.40;0.20;;;;;;;18.14;96.92;99645.22;5055641;28;20474;-51
2023/08/27 07:40:46;;;;;;;0.40;0.20;;;;;;;18.16;94.83;99637.91;5046290;28;20962;-51
2023/08/27 07:43:13;;;;;;;0.40;0.20;;;;;;;18.33;94.21;99640.25;5044021;28;20883;-52
2023/08/27 07:45:39;;;;;;;0.40;0.20;;;;;;;18.22;95.49;99634.75;5050880;28;20535;-51
2023/08/27 07:48:06;;;;;;;0.40;0.20;;;;;;;18.09;94.47;99624.97;5031760;28;20441;-51
2023/08/27 07:50:34;;;;;;;0.47;0.20;;;;;;;18.71;93.65;99627.75;5059752;28;20910;-51
2023/08/27 07:53:00;;;;;;;0.40;0.30;;;;;;;18.43;95.03;99628.84;5053224;28;20466;-51
2023/08/27 07:55:31;;;;;;;0.40;0.20;;;;;;;18.47;94.97;99625.81;5069950;28;20477;-51
2023/08/27 07:57:58;;;;;;;0.40;0.20;;;;;;;18.41;94.29;99628.94;5075225;28;20461;-51
2023/08/27 08:00:25;;;;;;;0.40;0.20;;;;;;;18.79;94.92;99639.69;5061355;28;20454;-51
2023/08/27 08:02:52;;;;;;;0.40;0.20;;;;;;;18.99;92.79;99632.81;5065169;28;20820;-50
2023/08/27 08:05:18;;;;;;;0.40;0.20;;;;;;;18.86;92.62;99646.31;5068108;28;20452;-51
2023/08/27 08:07:45;;;;;;;0.40;0.20;;;;;;;18.52;93.12;99649.72;5063713;28;20861;-51
2023/08/27 08:10:11;;;;;;;0.40;0.20;;;;;;;18.51;92.54;99651.56;5059470;28;20453;-51
2023/08/27 08:12:37;;;;;;;0.40;0.20;;;;;;;18.38;91.98;99648.00;5055151;28;20533;-51
2023/08/27 08:15:04;;;;;;;0.43;0.20;;;;;;;18.33;92.26;99653.69;5070667;28;20452;-50
2023/08/27 08:17:31;;;;;;;0.50;0.20;;;;;;;18.40;92.25;99647.91;5065883;28;20466;-51
2023/08/27 08:20:14;;;;;;;0.40;0.20;;;;;;;18.22;92.10;99650.03;5058961;28;20468;-51
2023/08/27 08:22:41;;;;;;;0.40;0.20;;;;;;;18.31;93.13;99638.63;5065789;28;20863;-51
2023/08/27 08:25:07;;;;;;;0.40;0.20;;;;;;;18.52;93.07;99639.81;5056616;28;20454;-51
2023/08/27 08:27:34;;;;;;;0.50;0.20;;;;;;;18.24;93.66;99637.38;5065150;28;20470;-51
2023/08/27 08:30:03;;;;;;;0.40;0.20;;;;;;;18.35;92.78;99638.31;5065622;28;20418;-51
2023/08/27 08:32:30;;;;;;;0.50;0.20;;;;;;;18.55;93.37;99636.03;5046219;28;20451;-51
2023/08/27 08:34:56;;;;;;;0.50;0.20;;;;;;;18.46;91.52;99629.47;5062373;28;20457;-51
2023/08/27 08:37:23;;;;;;;0.40;0.20;;;;;;;18.66;92.20;99649.63;5066258;28;20464;-50
2023/08/27 08:39:49;;;;;;;0.40;0.20;;;;;;;18.93;91.32;99657.53;5044248;28;20442;-51
2023/08/27 08:42:34;;;;;;;0.40;0.20;;;;;;;18.94;89.40;99657.41;5054359;28;20483;-50
2023/08/27 08:45:32;;;;;;;0.40;0.20;;;;;;;19.14;87.77;99668.53;5054642;28;20576;-51
2023/08/27 08:48:01;;;;;;;0.50;0.20;;;;;;;19.39;86.38;99672.97;5048192;28;20469;-51
2023/08/27 08:50:32;;;;;;;0.40;0.20;;;;;;;19.33;86.38;99673.44;5059562;28;20463;-51
2023/08/27 08:53:02;;;;;;;0.40;0.23;;;;;;;19.36;86.03;99676.75;5062823;28;20446;-50
2023/08/27 08:55:31;;;;;;;0.50;0.20;;;;;;;19.71;87.13;99663.34;5071896;28;20998;-51
2023/08/27 08:58:08;;;;;;;0.50;0.20;;;;;;;19.73;86.23;99658.69;5054459;28;20489;-51
2023/08/27 09:00:35;;;;;;;0.40;0.20;;;;;;;19.88;86.83;99651.28;5067587;28;20888;-51
2023/08/27 09:03:03;;;;;;;0.50;0.20;;;;;;;20.00;83.88;99655.69;5064438;28;20478;-51
2023/08/27 09:05:34;;;;;;;0.50;0.20;;;;;;;19.94;85.08;99656.19;5070053;28;20457;-51
2023/08/27 09:08:04;;;;;;;0.50;0.20;;;;;;;20.09;84.95;99659.53;5065407;28;20519;-51
2023/08/27 09:10:31;;;;;;;0.50;0.20;;;;;;;20.33;83.03;99654.91;5068578;28;20425;-51
2023/08/27 09:13:01;;;;;;;0.50;0.20;;;;;;;20.13;84.33;99639.41;5053953;28;20429;-51
2023/08/27 09:15:28;;;;;;;0.50;0.20;;;;;;;20.43;83.57;99641.56;5053796;28;20979;-51
2023/08/27 09:17:54;;;;;;;0.40;0.20;;;;;;;20.54;84.25;99646.09;5053835;28;20469;-51
2023/08/27 09:20:21;;;;;;;0.50;0.20;;;;;;;20.23;83.87;99639.53;5060493;28;20419;-51
2023/08/27 09:22:48;;;;;;;0.40;0.20;;;;;;;20.25;84.29;99637.56;5060191;28;20452;-52
2023/08/27 09:25:15;;;;;;;0.50;0.20;;;;;;;20.63;83.51;99639.97;5047480;28;20530;-51
2023/08/27 09:27:42;;;;;;;0.50;0.20;;;;;;;20.65;83.12;99638.84;5060005;28;20471;-51
2023/08/27 09:30:10;;;;;;;0.47;0.20;;;;;;;21.00;83.78;99638.69;5060701;28;20540;-51
2023/08/27 09:32:37;;;;;;;0.50;0.30;;;;;;;21.58;82.33;99633.00;5045578;28;20452;-51
2023/08/27 09:35:05;;;;;;;0.50;0.20;;;;;;;21.57;81.13;99629.44;5065732;28;20847;-51
2023/08/27 09:37:40;;;;;;;0.50;0.20;;;;;;;21.18;81.77;99628.19;5053747;28;21045;-51
2023/08/27 09:40:08;;;;;;;0.50;0.20;;;;;;;21.44;81.03;99619.78;5064386;28;20856;-51
2023/08/27 09:42:35;;;;;;;0.50;0.20;;;;;;;21.17;82.91;99623.78;5053087;28;20952;-51
2023/08/27 09:45:01;;;;;;;0.50;0.20;;;;;;;21.58;82.53;99611.34;5047849;28;20418;-51
2023/08/27 09:47:33;;;;;;;0.50;0.20;;;;;;;21.67;82.69;99610.59;5066287;28;20514;-51
2023/08/27 09:50:02;;;;;;;0.50;0.23;;;;;;;21.87;81.00;99600.75;5063167;28;20947;-51
2023/08/27 09:52:29;;;;;;;0.50;0.20;;;;;;;21.78;80.08;99596.09;5059626;28;20420;-51
2023/08/27 09:54:56;;;;;;;0.50;0.20;;;;;;;21.79;80.15;99582.47;5062018;28;20433;-51
2023/08/27 09:57:22;;;;;;;0.50;0.20;;;;;;;21.96;80.00;99574.75;5056462;28;20575;-51
2023/08/27 09:59:50;;;;;;;0.50;0.20;;;;;;;21.71;80.17;99582.28;5061738;28;20468;-51
2023/08/27 10:02:16;;;;;;;0.50;0.30;;;;;;;22.04;80.62;99577.63;5066165;28;20469;-51
2023/08/27 10:04:54;;;;;;;0.50;0.30;;;;;;;22.13;79.36;99576.84;5052788;28;20477;-51
2023/08/27 10:07:22;;;;;;;0.50;0.20;;;;;;;22.29;79.68;99584.47;5065869;28;20473;-51
2023/08/27 10:09:52;;;;;;;0.50;0.20;;;;;;;22.20;80.13;99579.84;5052947;28;20884;-52
2023/08/27 10:12:20;;;;;;;0.50;0.20;;;;;;;22.66;80.73;99588.31;5065565;28;20546;-51
2023/08/27 10:14:47;;;;;;;0.50;0.20;;;;;;;23.18;79.07;99580.91;5065380;28;20420;-51
2023/08/27 10:17:15;;;;;;;0.50;0.30;;;;;;;23.45;77.19;99576.63;5059703;28;20965;-51
2023/08/27 10:19:42;;;;;;;0.50;0.27;;;;;;;23.15;76.59;99574.88;5045537;28;20483;-51
2023/08/27 10:22:10;;;;;;;0.50;0.30;;;;;;;23.26;78.82;99558.47;5069221;28;20453;-51
2023/08/27 10:24:38;;;;;;;3.03;2.77;;;;;;;23.39;76.49;99566.34;5058998;28;20944;-51
2023/08/27 10:27:05;;;;;;;0.50;0.30;;;;;;;23.13;77.66;99561.47;5063934;28;20445;-51
2023/08/27 10:29:33;;;;;;;0.50;0.20;;;;;;;23.44;77.16;99564.94;5054172;28;20875;-51
2023/08/27 10:32:00;;;;;;;0.50;0.27;;;;;;;23.85;77.05;99550.19;5063816;28;20451;-51
2023/08/27 10:34:28;;;;;;;0.50;0.20;;;;;;;24.10;76.08;99537.78;5065948;28;20533;-51
2023/08/27 10:37:00;;;;;;;0.50;0.30;;;;;;;23.79;76.55;99553.47;5052247;28;20573;-50
2023/08/27 10:39:29;;;;;;;0.50;0.20;;;;;;;23.57;77.10;99548.31;5065602;28;20421;-51
2023/08/27 10:41:56;;;;;;;0.50;0.20;;;;;;;23.16;77.51;99549.47;5063046;28;20417;-51
2023/08/27 10:44:23;;;;;;;0.50;0.30;;;;;;;23.43;79.07;99554.19;5054973;28;20497;-51
2023/08/27 10:47:10;;;;;;;0.50;0.20;;;;;;;23.37;77.54;99549.34;5063279;28;20549;-51
2023/08/27 10:49:37;;;;;;;0.50;0.20;;;;;;;24.02;77.25;99548.56;5072210;28;20458;-51
2023/08/27 10:52:22;;;;;;;0.50;0.27;;;;;;;23.87;77.68;99556.31;5058359;28;20820;-49
2023/08/27 10:54:59;;;;;;;0.50;0.30;;;;;;;23.68;74.98;99553.63;5060769;28;20953;-49
2023/08/27 10:57:25;;;;;;;0.50;0.20;;;;;;;23.28;76.25;99554.63;5065504;28;20526;-49
2023/08/27 11:00:07;;;;;;;0.50;0.20;;;;;;;23.46;75.56;99552.06;5064105;28;20432;-49
2023/08/27 11:02:57;;;;;;;0.50;0.20;;;;;;;23.88;71.86;99546.31;5064382;28;20424;-49
2023/08/27 11:05:28;;;;;;;0.50;0.20;;;;;;;23.81;73.96;99545.19;5061261;28;21009;-50
2023/08/27 11:07:59;;;;;;;0.50;0.30;;;;;;;23.78;72.24;99550.91;5054827;28;20447;-50
2023/08/27 11:10:32;;;;;;;0.50;0.30;;;;;;;24.08;72.27;99557.97;5058454;28;20457;-51
2023/08/27 11:12:59;;;;;;;0.50;0.20;;;;;;;23.97;71.40;99561.69;5059131;28;20450;-50
2023/08/27 11:15:31;;;;;;;0.50;0.30;;;;;;;23.90;72.94;99558.72;5065518;28;20473;-49
2023/08/27 11:17:59;;;;;;;0.50;0.20;;;;;;;24.02;73.05;99561.28;5065155;28;21068;-50
2023/08/27 11:20:27;;;;;;;0.50;0.20;;;;;;;23.93;76.22;99554.88;5059903;28;20457;-50
2023/08/27 11:22:56;;;;;;;0.50;0.30;;;;;;;23.83;72.71;99549.44;5053295;28;20447;-50
2023/08/27 11:25:26;;;;;;;0.50;0.20;;;;;;;23.98;72.16;99555.25;5063219;28;20829;-49
2023/08/27 11:27:58;;;;;;;0.50;0.23;;;;;;;23.85;73.41;99554.75;5068277;28;20463;-50
2023/08/27 11:30:26;;;;;;;0.50;0.20;;;;;;;23.75;74.32;99546.63;5065951;28;20966;-50
2023/08/27 11:32:54;;;;;;;0.50;0.20;;;;;;;24.02;70.94;99545.84;5062165;28;20927;-50